createdAt,value
2022-11-17T00:00:24.683Z,99532.00
2022-11-17T00:03:15.998Z,99479.84
2022-11-17T00:06:06.872Z,99530.88
2022-11-17T00:08:53.684Z,99526.03
2022-11-17T00:11:58.666Z,99505.78
2022-11-17T00:14:44.591Z,99512.28
2022-11-17T00:17:31.109Z,99525.25
2022-11-17T00:20:35.909Z,99504.44
2022-11-17T00:23:22.223Z,99509.78
2022-11-17T00:26:08.088Z,99481.19
2022-11-17T00:28:58.966Z,99524.09
2022-11-17T00:32:03.935Z,99517.91
2022-11-17T00:34:50.327Z,99512.50
2022-11-17T00:37:37.701Z,99488.47
2022-11-17T00:40:24.174Z,99516.47
2022-11-17T00:43:10.445Z,99508.13
2022-11-17T00:45:57.392Z,99520.53
2022-11-17T00:48:43.653Z,99515.38
2022-11-17T00:51:30.173Z,99520.22
2022-11-17T00:54:16.290Z,99511.78
2022-11-17T00:57:03.041Z,99506.88
2022-11-17T00:59:49.122Z,99500.94
2022-11-17T01:02:35.401Z,99475.59
2022-11-17T01:05:21.535Z,99488.63
2022-11-17T01:08:07.810Z,99493.00
2022-11-17T01:10:54.376Z,99504.38
2022-11-17T01:13:42.050Z,99477.34
2022-11-17T01:16:29.007Z,99507.56
2022-11-17T01:19:16.464Z,99456.00
2022-11-17T01:22:02.662Z,99497.84
2022-11-17T01:24:48.977Z,99496.81
2022-11-17T01:27:35.363Z,99517.38
2022-11-17T01:30:21.937Z,99451.19
2022-11-17T01:33:08.479Z,99485.72
2022-11-17T01:35:54.877Z,99470.03
2022-11-17T01:38:40.779Z,99481.94
2022-11-17T01:41:28.359Z,99492.97
2022-11-17T01:44:36.339Z,99495.97
2022-11-17T01:47:32.214Z,99473.03
2022-11-17T01:50:32.394Z,99504.88
2022-11-17T01:53:20.066Z,99485.19
2022-11-17T01:56:12.566Z,99498.47
2022-11-17T01:59:04.517Z,99444.19
2022-11-17T02:01:56.708Z,99487.41
2022-11-17T02:04:49.682Z,99479.53
2022-11-17T02:07:37.369Z,99451.44
2022-11-17T02:10:23.337Z,99475.22
2022-11-17T02:13:09.659Z,99443.38
2022-11-17T02:15:55.815Z,99486.59
2022-11-17T02:18:42.197Z,99497.13
2022-11-17T02:22:02.399Z,99499.00
2022-11-17T02:25:12.654Z,99494.94
2022-11-17T02:28:13.715Z,99490.88
2022-11-17T02:31:07.839Z,99455.25
2022-11-17T02:34:04.471Z,99485.44
2022-11-17T02:36:58.241Z,99505.47
2022-11-17T02:40:03.304Z,99488.38
2022-11-17T02:43:19.515Z,99471.44
2022-11-17T02:46:18.370Z,99480.38
2022-11-17T02:49:10.030Z,99487.13
2022-11-17T02:51:58.395Z,99497.22
2022-11-17T02:54:43.971Z,99465.53
2022-11-17T02:57:34.575Z,99492.34
2022-11-17T03:00:20.758Z,99501.56
2022-11-17T03:03:35.002Z,99487.50
2022-11-17T03:06:39.627Z,99488.84
2022-11-17T03:09:33.098Z,99482.94
2022-11-17T03:12:25.934Z,99486.97
2022-11-17T03:15:41.010Z,99488.59
2022-11-17T03:18:47.308Z,99504.00
2022-11-17T03:21:50.033Z,99496.69
2022-11-17T03:24:40.120Z,99478.63
2022-11-17T03:27:33.510Z,99461.56
2022-11-17T03:30:20.950Z,99498.56
2022-11-17T03:33:15.216Z,99444.78
2022-11-17T03:36:11.660Z,99491.47
2022-11-17T03:39:17.038Z,99449.06
2022-11-17T03:42:07.019Z,99444.53
2022-11-17T03:44:56.286Z,99494.25
2022-11-17T03:47:42.995Z,99491.84
2022-11-17T03:50:34.950Z,99469.44
2022-11-17T03:53:20.379Z,99487.78
2022-11-17T03:56:28.271Z,99484.53
2022-11-17T03:59:22.793Z,99464.28
2022-11-17T04:02:09.512Z,99470.19
2022-11-17T04:05:07.285Z,99470.72
2022-11-17T04:07:53.287Z,99488.25
2022-11-17T04:10:58.756Z,99483.41
2022-11-17T04:14:03.279Z,99481.75
2022-11-17T04:16:48.955Z,99491.78
2022-11-17T04:19:34.775Z,99472.63
2022-11-17T04:22:20.573Z,99485.59
2022-11-17T04:25:06.883Z,99472.34
2022-11-17T04:28:11.601Z,99440.78
2022-11-17T04:30:57.859Z,99499.66
2022-11-17T04:33:45.982Z,99495.63
2022-11-17T04:36:35.921Z,99496.97
2022-11-17T04:39:21.360Z,99449.72
2022-11-17T04:42:07.361Z,99483.44
2022-11-17T04:44:52.752Z,99480.69
2022-11-17T04:47:38.393Z,99441.84
2022-11-17T04:50:24.031Z,99487.78
2022-11-17T04:53:09.795Z,99481.28
2022-11-17T04:55:59.956Z,99444.28
2022-11-17T04:58:46.263Z,99478.03
2022-11-17T05:01:32.658Z,99442.13
2022-11-17T05:04:39.009Z,99433.22
2022-11-17T05:07:24.543Z,99481.31
2022-11-17T05:10:12.754Z,99488.06
2022-11-17T05:13:30.111Z,99459.44
2022-11-17T05:16:34.700Z,99475.41
2022-11-17T05:19:23.083Z,99473.25
2022-11-17T05:22:28.408Z,99489.44
2022-11-17T05:25:14.605Z,99458.09
2022-11-17T05:28:00.615Z,99494.03
2022-11-17T05:30:46.186Z,99473.22
2022-11-17T05:33:37.453Z,99437.81
2022-11-17T05:36:24.569Z,99470.75
2022-11-17T05:39:11.229Z,99493.50
2022-11-17T05:41:56.727Z,99491.06
2022-11-17T05:44:42.534Z,99471.88
2022-11-17T05:47:28.209Z,99480.53
2022-11-17T05:50:13.949Z,99494.88
2022-11-17T05:52:59.642Z,99460.56
2022-11-17T05:55:45.393Z,99458.66
2022-11-17T05:58:35.214Z,99470.28
2022-11-17T06:01:21.587Z,99489.50
2022-11-17T06:04:08.040Z,99466.50
2022-11-17T06:06:58.967Z,99471.34
2022-11-17T06:09:44.746Z,99504.84
2022-11-17T06:12:30.910Z,99492.94
2022-11-17T06:15:16.839Z,99433.53
2022-11-17T06:18:06.565Z,99498.41
2022-11-17T06:20:53.844Z,99456.25
2022-11-17T06:23:39.607Z,99489.44
2022-11-17T06:26:25.445Z,99484.63
2022-11-17T06:29:11.369Z,99499.22
2022-11-17T06:31:58.179Z,99502.47
2022-11-17T06:34:48.045Z,99470.28
2022-11-17T06:37:37.674Z,99458.09
2022-11-17T06:40:23.809Z,99480.22
2022-11-17T06:43:11.752Z,99466.47
2022-11-17T06:45:57.608Z,99490.78
2022-11-17T06:48:43.737Z,99440.03
2022-11-17T06:51:29.557Z,99497.31
2022-11-17T06:54:15.514Z,99483.28
2022-11-17T06:57:01.375Z,99489.22
2022-11-17T06:59:47.275Z,99457.06
2022-11-17T07:02:33.151Z,99510.03
2022-11-17T07:05:18.750Z,99504.34
2022-11-17T07:08:08.353Z,99468.94
2022-11-17T07:10:55.036Z,99503.81
2022-11-17T07:13:40.825Z,99514.91
2022-11-17T07:16:26.810Z,99470.56
2022-11-17T07:19:13.204Z,99513.84
2022-11-17T07:21:58.856Z,99502.47
2022-11-17T07:24:44.909Z,99517.91
2022-11-17T07:27:30.915Z,99464.66
2022-11-17T07:30:17.465Z,99452.22
2022-11-17T07:43:58.676Z,99471.13
2022-11-17T08:03:06.678Z,99523.84
2022-11-17T08:11:23.681Z,99519.25
2022-11-17T08:25:20.469Z,99510.34
2022-11-17T08:28:35.423Z,99502.75
2022-11-17T08:31:52.381Z,99505.72
2022-11-17T08:35:08.575Z,99499.22
2022-11-17T08:38:27.894Z,99504.38
2022-11-17T08:41:15.304Z,99484.09
2022-11-17T09:05:11.693Z,99538.72
2022-11-17T09:08:44.377Z,99526.03
2022-11-17T09:11:54.352Z,99513.28
2022-11-17T09:15:32.724Z,99521.41
2022-11-17T09:18:37.142Z,99501.09
2022-11-17T09:21:23.098Z,99519.47
2022-11-17T09:24:08.643Z,99521.06
2022-11-17T09:26:54.986Z,99511.03
2022-11-17T09:29:41.051Z,99522.38
2022-11-17T09:32:27.987Z,99529.97
2022-11-17T09:35:14.303Z,99531.56
2022-11-17T09:38:03.648Z,99529.16
2022-11-17T09:40:49.645Z,99494.78
2022-11-17T09:43:37.995Z,99524.03
2022-11-17T09:46:35.041Z,99525.38
2022-11-17T09:49:40.073Z,99488.63
2022-11-17T09:52:31.446Z,99505.09
2022-11-17T09:55:31.149Z,99506.72
2022-11-17T09:58:46.366Z,99525.94
2022-11-17T10:01:32.417Z,99509.19
2022-11-17T10:04:18.655Z,99521.09
2022-11-17T10:07:04.396Z,99501.34
2022-11-17T10:09:50.929Z,99513.28
2022-11-17T10:12:44.903Z,99500.56
2022-11-17T10:15:42.316Z,99511.38
2022-11-17T10:18:36.572Z,99495.16
2022-11-17T10:21:23.829Z,99491.09
2022-11-17T10:24:10.068Z,99501.94
2022-11-17T10:26:55.522Z,99493.00
2022-11-17T10:29:41.325Z,99491.66
2022-11-17T10:32:29.157Z,99494.91
2022-11-17T10:35:19.330Z,99519.47
2022-11-17T10:38:07.978Z,99514.34
2022-11-17T10:40:55.211Z,99512.19
2022-11-17T10:43:57.190Z,99487.31
2022-11-17T10:47:02.040Z,99478.94
2022-11-17T10:50:13.501Z,99490.06
2022-11-17T10:53:21.762Z,99498.16
2022-11-17T10:56:13.476Z,99498.69
2022-11-17T10:59:14.369Z,99500.31
2022-11-17T11:02:28.176Z,99512.75
2022-11-17T11:05:33.918Z,99490.84
2022-11-17T11:08:47.472Z,99494.09
2022-11-17T11:11:41.486Z,99498.69
2022-11-17T11:14:35.116Z,99472.47
2022-11-17T11:17:21.053Z,99493.00
2022-11-17T11:20:13.118Z,99474.38
2022-11-17T11:23:23.781Z,99461.94
2022-11-17T11:26:27.513Z,99478.16
2022-11-17T11:29:28.674Z,99477.09
2022-11-17T11:32:14.702Z,99475.47
2022-11-17T11:35:17.214Z,99480.84
2022-11-17T11:38:28.886Z,99480.03
2022-11-17T11:41:33.009Z,99476.25
2022-11-17T11:44:57.562Z,99477.34
2022-11-17T11:47:51.989Z,99481.66
2022-11-17T11:50:49.057Z,99437.88
2022-11-17T11:54:02.609Z,99470.59
2022-11-17T11:56:48.664Z,99478.69
2022-11-17T11:59:34.392Z,99476.00
2022-11-17T12:02:55.692Z,99470.06
2022-11-17T12:05:41.358Z,99469.50
2022-11-17T12:08:45.780Z,99476.53
2022-11-17T12:11:50.609Z,99441.41
2022-11-17T12:14:37.834Z,99479.78
2022-11-17T12:17:26.219Z,99464.09
2022-11-17T12:20:30.991Z,99461.66
2022-11-17T12:23:38.236Z,99459.78
2022-11-17T12:26:25.611Z,99466.28
2022-11-17T12:29:19.986Z,99447.31
2022-11-17T12:32:06.053Z,99460.03
2022-11-17T12:35:30.114Z,99466.22
2022-11-17T12:38:16.406Z,99455.16
2022-11-17T12:41:02.283Z,99456.50
2022-11-17T12:43:48.929Z,99453.00
2022-11-17T12:46:34.931Z,99449.47
2022-11-17T12:49:27.994Z,99461.91
2022-11-17T12:52:22.946Z,99454.63
2022-11-17T12:55:12.233Z,99457.59
2022-11-17T12:58:10.544Z,99459.75
2022-11-17T13:01:10.289Z,99470.31
2022-11-17T13:04:12.751Z,99446.53
2022-11-17T13:07:07.271Z,99443.81
2022-11-17T13:09:57.217Z,99458.66
2022-11-17T13:12:43.643Z,99454.88
2022-11-17T13:15:29.714Z,99464.03
2022-11-17T13:18:28.364Z,99449.97
2022-11-17T13:21:33.157Z,99460.78
2022-11-17T13:24:30.200Z,99447.56
2022-11-17T13:27:29.019Z,99452.13
2022-11-17T13:30:29.178Z,99425.38
2022-11-17T13:33:20.366Z,99453.22
2022-11-17T13:36:12.298Z,99452.66
2022-11-17T13:39:00.475Z,99439.94
2022-11-17T13:41:46.910Z,99420.47
2022-11-17T13:44:33.073Z,99441.53
2022-11-17T13:47:28.871Z,99436.13
2022-11-17T13:50:26.845Z,99453.97
2022-11-17T13:53:12.579Z,99446.16
2022-11-17T13:55:58.077Z,99427.53
2022-11-17T13:58:48.280Z,99439.94
2022-11-17T14:01:34.303Z,99437.53
2022-11-17T14:04:23.201Z,99443.22
2022-11-17T14:07:10.877Z,99443.75
2022-11-17T14:10:31.297Z,99442.41
2022-11-17T14:13:16.809Z,99416.16
2022-11-17T14:16:02.651Z,99440.78
2022-11-17T14:18:56.536Z,99448.06
2022-11-17T14:22:13.234Z,99432.38
2022-11-17T14:25:05.694Z,99441.00
2022-11-17T14:27:53.308Z,99449.63
2022-11-17T14:30:39.253Z,99455.53
2022-11-17T14:33:25.835Z,99447.97
2022-11-17T14:36:16.740Z,99441.47
2022-11-17T14:39:03.204Z,99426.88
2022-11-17T14:41:49.958Z,99411.22
2022-11-17T14:44:35.895Z,99433.38
2022-11-17T14:47:21.318Z,99446.84
2022-11-17T14:50:09.884Z,99442.81
2022-11-17T14:52:55.456Z,99423.88
2022-11-17T14:55:41.480Z,99442.81
2022-11-17T14:58:27.247Z,99426.88
2022-11-17T15:01:18.742Z,99411.22
2022-11-17T15:04:27.257Z,99439.34
2022-11-17T15:07:11.588Z,99431.22
2022-11-17T15:09:57.740Z,99426.34
2022-11-17T15:12:43.760Z,99425.28
2022-11-17T15:15:29.227Z,99422.31
2022-11-17T15:18:15.188Z,99404.19
2022-11-17T15:21:05.696Z,99422.31
2022-11-17T15:23:51.504Z,99413.41
2022-11-17T15:26:37.205Z,99411.22
2022-11-17T15:29:23.375Z,99401.50
2022-11-17T15:32:09.010Z,99409.06
2022-11-17T15:34:55.079Z,99410.91
2022-11-17T15:37:40.453Z,99425.22
2022-11-17T15:40:26.427Z,99423.59
2022-11-17T15:43:11.921Z,99414.63
2022-11-17T15:46:06.413Z,99399.22
2022-11-17T15:48:52.632Z,99413.31
2022-11-17T15:51:38.818Z,99392.75
2022-11-17T15:54:25.111Z,99405.25
2022-11-17T15:57:10.613Z,99410.88
2022-11-17T15:59:56.390Z,99408.16
2022-11-17T16:02:42.347Z,99408.94
2022-11-17T16:05:28.313Z,99409.75
2022-11-17T16:08:14.130Z,99389.44
2022-11-17T16:10:59.512Z,99405.75
2022-11-17T16:13:45.652Z,99411.44
2022-11-17T16:16:33.945Z,99390.34
2022-11-17T16:19:20.076Z,99397.91
2022-11-17T16:22:05.659Z,99398.72
2022-11-17T16:24:51.324Z,99411.97
2022-11-17T16:27:37.037Z,99411.72
2022-11-17T16:30:29.256Z,99400.94
2022-11-17T16:33:17.559Z,99393.91
2022-11-17T16:36:07.132Z,99385.28
2022-11-17T16:39:02.124Z,99408.22
2022-11-17T16:42:00.243Z,99431.38
2022-11-17T16:44:46.007Z,99413.53
2022-11-17T16:47:32.310Z,99412.41
2022-11-17T16:50:17.828Z,99418.09
2022-11-17T16:53:04.935Z,99394.84
2022-11-17T16:55:50.613Z,99413.75
2022-11-17T16:58:36.787Z,99422.09
2022-11-17T17:01:26.257Z,99417.47
2022-11-17T17:04:12.595Z,99382.91
2022-11-17T17:06:58.437Z,99414.56
2022-11-17T17:09:44.040Z,99420.19
2022-11-17T17:12:29.410Z,99405.28
2022-11-17T17:15:15.375Z,99421.50
2022-11-17T17:18:03.449Z,99417.94
2022-11-17T17:20:52.677Z,99419.56
2022-11-17T17:23:38.231Z,99414.69
2022-11-17T17:26:26.450Z,99418.75
2022-11-17T17:29:12.721Z,99427.06
2022-11-17T17:31:58.428Z,99394.09
2022-11-17T17:34:44.029Z,99428.34
2022-11-17T17:37:32.298Z,99426.44
2022-11-17T17:40:19.243Z,99425.06
2022-11-17T17:43:12.075Z,99415.06
2022-11-17T17:46:15.863Z,99422.06
2022-11-17T17:49:02.234Z,99444.41
2022-11-17T17:51:47.980Z,99419.03
2022-11-17T17:54:33.965Z,99401.69
2022-11-17T17:57:20.056Z,99420.66
2022-11-17T18:00:06.717Z,99426.34
2022-11-17T18:02:52.853Z,99437.66
2022-11-17T18:05:39.032Z,99423.97
2022-11-17T18:08:24.483Z,99411.56
2022-11-17T18:11:13.157Z,99418.09
2022-11-17T18:14:00.726Z,99430.00
2022-11-17T18:16:46.333Z,99427.59
2022-11-17T18:19:33.454Z,99433.56
2022-11-17T18:22:19.630Z,99424.94
2022-11-17T18:25:09.179Z,99431.91
2022-11-17T18:27:57.096Z,99411.81
2022-11-17T18:30:42.579Z,99402.81
2022-11-17T18:33:29.767Z,99432.56
2022-11-17T18:36:15.224Z,99420.16
2022-11-17T18:39:01.051Z,99394.31
2022-11-17T18:41:47.034Z,99412.72
2022-11-17T18:44:33.293Z,99405.97
2022-11-17T18:47:18.804Z,99420.44
2022-11-17T18:50:04.865Z,99416.09
2022-11-17T18:52:50.474Z,99418.56
2022-11-17T18:55:36.575Z,99407.47
2022-11-17T18:58:22.199Z,99401.22
2022-11-17T19:01:14.102Z,99411.84
2022-11-17T19:04:01.019Z,99421.63
2022-11-17T19:06:46.812Z,99415.94
2022-11-17T19:09:32.131Z,99425.94
2022-11-17T19:12:19.032Z,99421.00
2022-11-17T19:15:05.470Z,99412.84
2022-11-17T19:17:51.554Z,99424.38
2022-11-17T19:20:36.993Z,99400.75
2022-11-17T19:23:22.946Z,99419.09
2022-11-17T19:26:10.960Z,99414.75
2022-11-17T19:28:58.394Z,99396.03
2022-11-17T19:31:45.203Z,99397.44
2022-11-17T19:34:31.684Z,99418.75
2022-11-17T19:37:17.700Z,99398.25
2022-11-17T19:40:03.442Z,99394.75
2022-11-17T19:42:50.135Z,99369.88
2022-11-17T19:45:35.904Z,99377.44
2022-11-17T19:48:21.205Z,99386.13
2022-11-17T19:51:20.464Z,99383.41
2022-11-17T19:54:08.436Z,99373.41
2022-11-17T19:56:54.645Z,99354.97
2022-11-17T19:59:40.625Z,99382.00
2022-11-17T20:02:26.577Z,99393.28
2022-11-17T20:05:12.139Z,99378.41
2022-11-17T20:07:57.900Z,99367.91
2022-11-17T20:10:43.474Z,99389.78
2022-11-17T20:13:31.399Z,99351.63
2022-11-17T20:16:22.176Z,99384.06
2022-11-17T20:19:09.001Z,99365.88
2022-11-17T20:21:54.690Z,99364.34
2022-11-17T20:24:40.867Z,99340.66
2022-11-17T20:27:26.452Z,99360.38
2022-11-17T20:30:15.347Z,99373.13
2022-11-17T20:33:01.664Z,99371.22
2022-11-17T20:35:47.305Z,99357.97
2022-11-17T20:38:33.160Z,99363.66
2022-11-17T20:41:20.993Z,99335.41
2022-11-17T20:44:23.628Z,99353.47
2022-11-17T20:47:09.757Z,99347.81
2022-11-17T20:49:55.713Z,99348.63
2022-11-17T20:52:41.444Z,99357.25
2022-11-17T20:55:27.054Z,99352.72
2022-11-17T20:58:13.409Z,99332.94
2022-11-17T21:00:59.585Z,99353.63
2022-11-17T21:03:45.819Z,99330.88
2022-11-17T21:06:31.849Z,99342.56
2022-11-17T21:09:18.367Z,99349.56
2022-11-17T21:12:04.519Z,99339.25
2022-11-17T21:14:50.337Z,99349.19
2022-11-17T21:17:54.723Z,99351.59
2022-11-17T21:20:42.835Z,99360.94
2022-11-17T21:23:28.463Z,99367.34
2022-11-17T21:26:19.356Z,99328.34
2022-11-17T21:29:06.918Z,99354.00
2022-11-17T21:31:52.873Z,99361.28
2022-11-17T21:34:38.151Z,99352.38
2022-11-17T21:37:24.408Z,99354.00
2022-11-17T21:40:10.047Z,99338.66
2022-11-17T21:42:56.124Z,99345.66
2022-11-17T21:45:42.184Z,99358.28
2022-11-17T21:48:28.440Z,99348.59
2022-11-17T21:51:25.008Z,99343.16
2022-11-17T21:54:10.879Z,99335.06
2022-11-17T21:56:56.470Z,99326.38
2022-11-17T21:59:42.539Z,99331.75
2022-11-17T22:02:28.098Z,99335.78
2022-11-17T22:05:14.003Z,99308.38
2022-11-17T22:07:59.892Z,99334.75
2022-11-17T22:10:45.686Z,99306.84
2022-11-17T22:13:31.103Z,99315.91
2022-11-17T22:16:16.811Z,99301.50
2022-11-17T22:19:03.085Z,99321.69
2022-11-17T22:21:51.206Z,99321.06
2022-11-17T22:24:39.543Z,99310.22
2022-11-17T22:27:28.260Z,99311.75
2022-11-17T22:30:15.048Z,99311.44
2022-11-17T22:33:01.286Z,99312.50
2022-11-17T22:35:46.942Z,99305.69
2022-11-17T22:38:33.090Z,99291.81
2022-11-17T22:41:21.304Z,99301.31
2022-11-17T22:44:07.499Z,99318.06
2022-11-17T22:46:53.914Z,99314.00
2022-11-17T22:49:40.519Z,99304.88
2022-11-17T22:52:26.403Z,99309.88
2022-11-17T22:55:13.176Z,99313.13
2022-11-17T22:57:59.140Z,99308.66
2022-11-17T23:00:46.078Z,99317.88
2022-11-17T23:03:32.761Z,99313.63
2022-11-17T23:06:19.068Z,99322.91
2022-11-17T23:09:04.671Z,99311.91
2022-11-17T23:11:50.945Z,99314.13
2022-11-17T23:14:36.386Z,99315.47
2022-11-17T23:17:22.409Z,99299.47
2022-11-17T23:20:10.110Z,99309.84
2022-11-17T23:22:56.071Z,99284.03
2022-11-17T23:25:42.006Z,99291.69
2022-11-17T23:28:27.761Z,99306.81
2022-11-17T23:31:15.148Z,99298.75
2022-11-17T23:34:01.950Z,99293.34
2022-11-17T23:36:47.550Z,99285.28
2022-11-17T23:39:33.541Z,99273.66
2022-11-17T23:42:19.015Z,99308.75
2022-11-17T23:45:05.692Z,99286.09
2022-11-17T23:47:51.566Z,99289.59
2022-11-17T23:50:38.007Z,99293.91
2022-11-17T23:53:23.990Z,99295.81
2022-11-17T23:56:11.107Z,99305.84
2022-11-17T23:58:56.695Z,99311.66
